Airfield :
LOGIN :

Register | Disclaimer

   EN    FR    IT 

 










Legend :    VFR   Marginal VFR   IFR   Intensive IFR   Very Intensive IFR
Visi :
Ceiling :
>= 8 km
>= 3000ft
5 to 8 km
1000 to 3000 ft
1500m to 5 km
500 to 1000 ft
800 to 1500m
200 to 500 ft
< 800m
< 200 ft
Symbols :   Thunderstorms  Fog  Heavy snow  Heavy precipitations  Wind > 20 kt
SIGMETs :     Misc.  Thunderstorms  Icing  Turbulence  Mountain Waves  Volcanic Ashes







- Airport Elevation : 5600 ft
- IATA code : SMV


LSZS - Samedan

CURRENT METAR :
  • 130820Z 18001KT 1500 PRFG FEW042 M22/M25 Q1011 RMK E

EXPIRED METARs :
  • 130750Z VRB02KT 1500 PRFG FEW042 M23/M26 Q1011 RMK D
  • 130720Z VRB02KT 0500 FG FEW041 M23/M26 Q1010 RMK B
  • 130650Z VRB01KT 0500 FG NSC M23/M26 Q1010 RMK A
  • 130620Z AUTO VRB01KT 1100 SN BR VV007 M23/M26 Q1010
  • 130550Z AUTO VRB02KT 0650 BR NCD M23/M25 Q1010

TAF TAF LSZS
Valid from the 13 at 06:00 until the 13 at 15:00 UTC


130525Z 1306/1315 VRB03KT CAVOK TXM09/1314Z
PROB30
TEMPO 1306/1309 0300 FZFG VV002
TEMPO 1309/1315 FEW035
ATIS : +41 81 834 93 24
No reported NOTAMs for that airfield.



MET'MAP, your aeronautical weather chart ! - Copyright ORBIFLY December 2007 - Disclaimer

ORBIFLY MET'MAP TEAM :

Programming & Development : Alexandra Zaïnal
Concept & Development : Baudouin d'Aumeries
Co-Development & Prog : Marc-Olivier Méhu
Technical & hardware support : Manuel Goepfert

Contact : metmap@orbifly.com




SOURCES & CREDITS :

   NOAA